Time;durP1;ratioP1;P1;durP2;ratioP2;P2;SDS_P1;SDS_P2;PMS_P1;PMS_P2;Temp;Humidity;BMP_temperature;BMP_pressure;BME280_temperature;BME280_humidity;BME280_pressure;Samples;Min_cycle;Max_cycle;Signal;HPM_P1;HPM_P2
2022/10/30 00:00:40;;;;;;;;;;;;;;;21.81;65.70;99862.25;7315134;19;129313;-34
2022/10/30 00:03:08;;;;;;;;;;;;;;;21.84;65.51;99861.97;7315475;19;129733;-32
2022/10/30 00:05:33;;;;;;;;;;;;;;;21.82;66.21;99863.88;7313649;19;129818;-35
2022/10/30 00:07:59;;;;;;;;;;;;;;;21.81;66.08;99870.09;7314380;19;129393;-32
2022/10/30 00:10:24;;;;;;;;;;;;;;;21.82;66.21;99856.03;7313442;19;130733;-34
2022/10/30 00:12:49;;;;;;;;;;;;;;;21.82;65.62;99863.03;7312978;19;130630;-33
2022/10/30 00:15:14;;;;;;;;;;;;;;;21.75;66.09;99839.16;7313975;19;129149;-32
2022/10/30 00:17:40;;;;;;;;;;;;;;;21.81;66.32;99851.78;7312043;19;129887;-35
2022/10/30 00:20:05;;;;;;;;;;;;;;;21.81;66.25;99856.16;7313173;19;131176;-32
2022/10/30 00:22:30;;;;;;;;;;;;;;;21.82;65.67;99852.56;7313977;19;132688;-37
2022/10/30 00:24:55;;;;;;;;;;;;;;;21.81;65.70;99851.78;7313455;19;129598;-33
2022/10/30 00:27:21;;;;;;;;;;;;;;;21.79;65.74;99848.44;7313380;19;129290;-33
2022/10/30 00:29:46;;;;;;;;;;;;;;;21.82;66.04;99848.19;7312566;19;128758;-29
2022/10/30 00:32:11;;;;;;;;;;;;;;;21.83;65.68;99841.97;7313490;19;129024;-31
2022/10/30 00:34:36;;;;;;;;;;;;;;;21.84;65.82;99851.50;7313555;19;129981;-32
2022/10/30 00:37:02;;;;;;;;;;;;;;;21.81;66.11;99846.53;7313073;19;129109;-28
2022/10/30 00:39:27;;;;;;;;;;;;;;;21.82;66.15;99848.19;7311929;19;129065;-37
2022/10/30 00:41:52;;;;;;;;;;;;;;;21.78;66.09;99836.31;7310633;19;130805;-34
2022/10/30 00:44:30;;;;;;;;;;;;;;;21.81;66.23;99838.69;7313590;19;129927;-36
2022/10/30 00:46:55;;;;;;;;;;;;;;;21.82;66.02;99829.84;7313181;19;129709;-30
2022/10/30 00:49:20;;;;;;;;;;;;;;;21.82;66.06;99837.72;7312772;19;130784;-33
2022/10/30 00:51:48;;;;;;;;;;;;;;;21.73;66.10;99822.78;7311581;19;128980;-34
2022/10/30 00:54:15;;;;;;;;;;;;;;;21.83;66.06;99825.47;7310535;19;130154;-33
2022/10/30 00:56:41;;;;;;;;;;;;;;;21.76;65.77;99806.84;7312383;19;129023;-34
2022/10/30 00:59:12;;;;;;;;;;;;;;;21.84;65.80;99820.09;7313583;19;129135;-33
2022/10/30 01:01:39;;;;;;;;;;;;;;;21.84;65.44;99822.69;7313300;19;130139;-33
2022/10/30 01:04:05;;;;;;;;;;;;;;;21.76;66.18;99801.63;7311891;19;131110;-32
2022/10/30 01:06:32;;;;;;;;;;;;;;;21.76;65.43;99799.00;7312200;19;129036;-34
2022/10/30 01:08:58;;;;;;;;;;;;;;;21.83;65.52;99805.31;7313102;19;129252;-30
2022/10/30 01:11:23;;;;;;;;;;;;;;;21.82;66.19;99806.31;7312116;19;130128;-33
2022/10/30 01:13:50;;;;;;;;;;;;;;;21.81;66.28;99804.66;7309868;19;131491;-35
2022/10/30 01:16:18;;;;;;;;;;;;;;;21.83;65.56;99807.94;7312902;19;129101;-31
2022/10/30 01:19:10;;;;;;;;;;;;;;;21.86;65.52;99806.88;7309502;19;130290;-32
2022/10/30 01:21:37;;;;;;;;;;;;;;;21.75;65.44;99786.03;7311863;19;129082;-33
2022/10/30 01:24:11;;;;;;;;;;;;;;;21.83;65.68;99804.53;7311498;19;129594;-33
2022/10/30 01:26:45;;;;;;;;;;;;;;;21.82;65.68;99803.69;7312426;19;129435;-34
2022/10/30 01:29:13;;;;;;;;;;;;;;;21.81;65.83;99798.59;7313450;19;129360;-34
2022/10/30 01:31:38;;;;;;;;;;;;;;;21.83;65.87;99802.72;7310418;19;130198;-31
2022/10/30 01:34:03;;;;;;;;;;;;;;;21.75;66.21;99789.44;7309254;19;129314;-31
2022/10/30 01:36:47;;;;;;;;;;;;;;;21.81;66.14;99795.97;7312556;19;130182;-35
2022/10/30 01:39:14;;;;;;;;;;;;;;;21.86;65.47;99792.00;7313177;19;129919;-34
2022/10/30 01:41:40;;;;;;;;;;;;;;;21.82;65.69;99797.63;7310359;19;129459;-30
2022/10/30 01:44:07;;;;;;;;;;;;;;;21.82;66.41;99790.59;7311845;19;129362;-30
2022/10/30 01:46:51;;;;;;;;;;;;;;;21.80;65.66;99779.44;7311374;19;129961;-32
2022/10/30 01:49:27;;;;;;;;;;;;;;;21.73;65.67;99765.19;7310286;19;128954;-32
2022/10/30 01:52:09;;;;;;;;;;;;;;;21.82;65.78;99774.91;7310344;19;131136;-33
2022/10/30 01:54:49;;;;;;;;;;;;;;;21.81;66.21;99781.09;7310754;19;129679;-32
2022/10/30 01:57:20;;;;;;;;;;;;;;;21.73;65.99;99762.59;7312254;19;130479;-35
2022/10/30 01:59:46;;;;;;;;;;;;;;;21.81;65.66;99773.25;7309852;19;129091;-34
2022/10/30 02:02:11;;;;;;;;;;;;;;;21.84;66.18;99785.22;7310213;19;129070;-34
2022/10/30 02:04:37;;;;;;;;;;;;;;;21.80;66.13;99789.06;7311194;19;129632;-32
2022/10/30 02:07:02;;;;;;;;;;;;;;;21.79;66.05;99780.41;7310575;19;129464;-34
2022/10/30 02:09:28;;;;;;;;;;;;;;;21.80;66.06;99782.06;7311385;19;129208;-35
2022/10/30 02:11:54;;;;;;;;;;;;;;;21.82;66.15;99779.28;7311272;19;129262;-37
2022/10/30 02:14:22;;;;;;;;;;;;;;;21.81;65.82;99769.81;7306645;19;129571;-30
2022/10/30 02:16:49;;;;;;;;;;;;;;;21.82;65.60;99772.28;7310235;19;129333;-35
2022/10/30 02:19:15;;;;;;;;;;;;;;;21.83;66.09;99780.97;7311318;19;130022;-33
2022/10/30 02:21:40;;;;;;;;;;;;;;;21.81;66.33;99773.25;7310390;19;129472;-34
2022/10/30 02:24:05;;;;;;;;;;;;;;;21.81;65.79;99768.03;7309399;19;129961;-31
2022/10/30 02:26:31;;;;;;;;;;;;;;;21.73;66.24;99759.16;7311212;19;130521;-35
2022/10/30 02:28:56;;;;;;;;;;;;;;;21.82;65.55;99769.66;7312668;19;129304;-33
2022/10/30 02:31:21;;;;;;;;;;;;;;;21.83;65.56;99773.91;7310279;19;128995;-32
2022/10/30 02:33:47;;;;;;;;;;;;;;;21.82;65.79;99769.66;7309726;19;129188;-35
2022/10/30 02:36:15;;;;;;;;;;;;;;;21.81;65.95;99773.25;7312348;19;129362;-35
2022/10/30 02:38:41;;;;;;;;;;;;;;;21.79;66.35;99769.94;7309046;19;129148;-33
2022/10/30 02:41:06;;;;;;;;;;;;;;;21.81;66.33;99768.03;7311802;19;129059;-33
2022/10/30 02:43:31;;;;;;;;;;;;;;;21.85;66.12;99764.16;7308412;19;129938;-36
2022/10/30 02:45:57;;;;;;;;;;;;;;;21.81;66.23;99765.41;7311627;19;128820;-35
2022/10/30 02:48:22;;;;;;;;;;;;;;;21.82;65.90;99759.19;7307275;19;129277;-31
2022/10/30 02:50:47;;;;;;;;;;;;;;;21.82;65.95;99764.44;7310969;19;129183;-32
2022/10/30 02:53:12;;;;;;;;;;;;;;;21.77;66.13;99752.69;7309966;19;129148;-34
2022/10/30 02:55:38;;;;;;;;;;;;;;;21.81;65.85;99754.94;7310152;19;130407;-35
2022/10/30 02:58:03;;;;;;;;;;;;;;;21.81;66.47;99765.41;7309069;19;129531;-33
2022/10/30 03:00:28;;;;;;;;;;;;;;;21.83;66.13;99760.03;7310488;19;129517;-33
2022/10/30 03:02:54;;;;;;;;;;;;;;;21.82;66.11;99759.19;7316100;19;129688;-34
2022/10/30 03:05:19;;;;;;;;;;;;;;;21.81;65.85;99760.16;7317147;19;129920;-37
2022/10/30 03:07:47;;;;;;;;;;;;;;;21.76;65.90;99749.28;7314473;19;129508;-34
2022/10/30 03:10:12;;;;;;;;;;;;;;;21.84;65.75;99767.75;7317613;19;130039;-31
2022/10/30 03:12:37;;;;;;;;;;;;;;;21.82;65.64;99764.44;7315878;19;130332;-36
2022/10/30 03:15:03;;;;;;;;;;;;;;;21.81;65.89;99762.78;7316995;19;129739;-35
2022/10/30 03:17:28;;;;;;;;;;;;;;;21.79;65.85;99754.25;7314841;19;129390;-35
2022/10/30 03:19:53;;;;;;;;;;;;;;;21.71;65.97;99751.44;7316963;19;129414;-31
2022/10/30 03:22:19;;;;;;;;;;;;;;;21.78;65.97;99763.03;7317395;19;129023;-35
2022/10/30 03:24:44;;;;;;;;;;;;;;;21.80;65.67;99766.34;7317016;19;129670;-34
2022/10/30 03:27:09;;;;;;;;;;;;;;;21.72;66.24;99747.84;7314596;19;129267;-33
2022/10/30 03:29:34;;;;;;;;;;;;;;;21.82;65.68;99761.81;7314399;19;129205;-34
2022/10/30 03:32:00;;;;;;;;;;;;;;;21.82;65.88;99764.44;7316938;19;129537;-32
2022/10/30 03:34:26;;;;;;;;;;;;;;;21.86;65.36;99768.44;7314517;19;129143;-32
2022/10/30 03:36:51;;;;;;;;;;;;;;;21.83;65.51;99776.53;7314792;19;129611;-33
2022/10/30 03:39:16;;;;;;;;;;;;;;;21.80;65.58;99771.59;7317354;19;129870;-35
2022/10/30 03:41:42;;;;;;;;;;;;;;;21.82;65.85;99782.75;7316500;19;129563;-33
2022/10/30 03:44:07;;;;;;;;;;;;;;;21.85;65.40;99779.84;7316945;19;129541;-34
2022/10/30 03:46:32;;;;;;;;;;;;;;;21.84;65.68;99775.59;7313790;19;129944;-32
2022/10/30 03:48:58;;;;;;;;;;;;;;;21.81;65.89;99778.50;7316882;19;130262;-33
2022/10/30 03:51:23;;;;;;;;;;;;;;;21.82;65.69;99780.13;7316508;19;129903;-34
2022/10/30 03:53:48;;;;;;;;;;;;;;;21.83;65.70;99770.50;7316232;19;131920;-31
2022/10/30 03:56:13;;;;;;;;;;;;;;;21.76;66.03;99754.53;7317246;19;129286;-33
2022/10/30 03:58:39;;;;;;;;;;;;;;;21.82;66.31;99766.22;7313645;19;129407;-38
2022/10/30 04:01:05;;;;;;;;;;;;;;;21.83;65.91;99766.06;7316656;19;129289;-31
2022/10/30 04:03:30;;;;;;;;;;;;;;;21.84;65.68;99772.97;7315752;19;129190;-36
2022/10/30 04:05:56;;;;;;;;;;;;;;;21.84;66.14;99769.53;7315979;19;131074;-29
2022/10/30 04:08:21;;;;;;;;;;;;;;;21.82;66.30;99764.44;7311537;19;130126;-34
2022/10/30 04:10:46;;;;;;;;;;;;;;;21.82;66.12;99756.56;7315478;19;129328;-37
2022/10/30 04:13:13;;;;;;;;;;;;;;;21.83;66.41;99754.78;7312425;19;129119;-33
2022/10/30 04:15:38;;;;;;;;;;;;;;;21.80;66.40;99749.81;7315021;19;129314;-35
2022/10/30 04:18:04;;;;;;;;;;;;;;;21.83;66.08;99750.38;7311816;19;129549;-32
2022/10/30 04:20:29;;;;;;;;;;;;;;;21.77;66.34;99740.47;7315057;19;129511;-33
2022/10/30 04:22:56;;;;;;;;;;;;;;;21.82;65.55;99738.25;7315106;19;129313;-35
2022/10/30 04:25:21;;;;;;;;;;;;;;;21.82;65.81;99733.03;7314246;19;129458;-33
2022/10/30 04:27:48;;;;;;;;;;;;;;;21.79;65.83;99716.75;7311454;19;129171;-33
2022/10/30 04:30:13;;;;;;;;;;;;;;;21.85;65.92;99727.50;7313255;19;129598;-34
2022/10/30 04:32:48;;;;;;;;;;;;;;;21.81;66.22;99720.91;7312532;19;129841;-40
2022/10/30 04:35:14;;;;;;;;;;;;;;;21.76;65.82;99717.88;7313164;19;130741;-34
2022/10/30 04:37:39;;;;;;;;;;;;;;;21.83;66.30;99733.84;7308697;19;129148;-36
2022/10/30 04:40:05;;;;;;;;;;;;;;;21.79;65.48;99741.16;7312975;19;130392;-33
2022/10/30 04:42:30;;;;;;;;;;;;;;;21.83;65.94;99739.91;7313752;19;129170;-33
2022/10/30 04:44:55;;;;;;;;;;;;;;;21.81;66.05;99736.63;7313935;19;129408;-35
2022/10/30 04:47:20;;;;;;;;;;;;;;;21.83;66.09;99736.47;7313190;19;129468;-31
2022/10/30 04:49:46;;;;;;;;;;;;;;;21.81;65.80;99733.16;7311932;19;129322;-31
2022/10/30 04:52:11;;;;;;;;;;;;;;;21.83;66.10;99734.66;7312306;19;129382;-34
2022/10/30 04:54:36;;;;;;;;;;;;;;;21.83;65.51;99726.81;7310869;19;129376;-36
2022/10/30 04:57:01;;;;;;;;;;;;;;;21.80;65.97;99734.09;7313064;19;129445;-30
2022/10/30 04:59:27;;;;;;;;;;;;;;;21.81;65.93;99728.75;7312409;19;129083;-36
2022/10/30 05:01:52;;;;;;;;;;;;;;;21.81;66.28;99720.06;7313376;19;128928;-32
2022/10/30 05:04:17;;;;;;;;;;;;;;;21.79;66.30;99727.22;7312689;19;130570;-32
2022/10/30 05:06:42;;;;;;;;;;;;;;;21.73;66.05;99697.16;7311798;19;129717;-33
2022/10/30 05:09:08;;;;;;;;;;;;;;;21.82;65.86;99717.31;7313530;19;129247;-29
2022/10/30 05:11:33;;;;;;;;;;;;;;;21.74;65.32;99698.00;7311194;19;129338;-32
2022/10/30 05:13:58;;;;;;;;;;;;;;;21.85;65.69;99718.81;7310880;19;129248;-34
2022/10/30 05:16:23;;;;;;;;;;;;;;;21.74;65.76;99703.22;7310712;19;129435;-31
2022/10/30 05:18:49;;;;;;;;;;;;;;;21.81;65.94;99723.53;7306498;19;129224;-32
2022/10/30 05:21:14;;;;;;;;;;;;;;;21.75;66.13;99704.91;7312256;19;129145;-34
2022/10/30 05:23:39;;;;;;;;;;;;;;;21.83;66.01;99721.56;7311920;19;129414;-34
2022/10/30 05:26:04;;;;;;;;;;;;;;;21.79;65.62;99722.84;7310322;19;130142;-35
2022/10/30 05:28:30;;;;;;;;;;;;;;;21.81;65.90;99726.16;7305254;19;129361;-34
2022/10/30 05:30:55;;;;;;;;;;;;;;;21.78;66.00;99715.94;7311203;19;129964;-35
2022/10/30 05:33:20;;;;;;;;;;;;;;;21.83;65.88;99732.03;7310983;19;129816;-34
2022/10/30 05:35:45;;;;;;;;;;;;;;;21.82;65.78;99725.16;7306864;19;130380;-33
2022/10/30 05:38:11;;;;;;;;;;;;;;;21.84;65.62;99725.88;7308225;19;129678;-30
2022/10/30 05:40:36;;;;;;;;;;;;;;;21.89;65.90;99728.91;7311347;19;129160;-34
2022/10/30 05:43:02;;;;;;;;;;;;;;;21.85;65.67;99719.66;7311782;19;129702;-32
2022/10/30 05:45:27;;;;;;;;;;;;;;;21.83;65.78;99715.53;7309230;19;129610;-33
2022/10/30 05:48:03;;;;;;;;;;;;;;;21.82;65.66;99732.19;7305557;19;129412;-31
2022/10/30 05:50:28;;;;;;;;;;;;;;;21.83;65.90;99724.19;7309090;19;130212;-32
2022/10/30 05:52:58;;;;;;;;;;;;;;;21.84;65.50;99728.47;7308963;19;129135;-31
2022/10/30 05:55:23;;;;;;;;;;;;;;;21.83;65.71;99726.00;7304997;19;130002;-32
2022/10/30 05:57:48;;;;;;;;;;;;;;;21.74;65.62;99717.16;7304192;19;129205;-35
2022/10/30 06:00:14;;;;;;;;;;;;;;;21.84;65.61;99735.50;7305818;19;130439;-34
2022/10/30 06:02:39;;;;;;;;;;;;;;;21.85;65.40;99730.13;7306449;19;129828;-36
2022/10/30 06:05:05;;;;;;;;;;;;;;;21.87;65.60;99722.97;7306102;19;131009;-36
2022/10/30 06:07:30;;;;;;;;;;;;;;;21.83;65.68;99726.81;7305218;19;130111;-39
2022/10/30 06:09:55;;;;;;;;;;;;;;;21.77;65.54;99708.22;7308262;19;129312;-35
2022/10/30 06:12:20;;;;;;;;;;;;;;;21.82;65.54;99716.47;7306570;19;129196;-34
2022/10/30 06:14:45;;;;;;;;;;;;;;;21.85;66.15;99721.44;7302990;19;129997;-38
2022/10/30 06:17:11;;;;;;;;;;;;;;;21.83;66.01;99726.00;7306584;19;129388;-36
2022/10/30 06:19:36;;;;;;;;;;;;;;;21.84;66.26;99715.41;7306894;19;129511;-34
2022/10/30 06:22:01;;;;;;;;;;;;;;;21.82;65.68;99727.78;7308006;19;129641;-36
2022/10/30 06:24:26;;;;;;;;;;;;;;;21.83;65.71;99729.44;7307168;19;129986;-37
2022/10/30 06:26:51;;;;;;;;;;;;;;;21.83;66.18;99729.44;7308981;19;129379;-34
2022/10/30 06:29:17;;;;;;;;;;;;;;;21.85;65.34;99726.66;7310397;19;129528;-35
2022/10/30 06:31:42;;;;;;;;;;;;;;;21.83;66.00;99732.03;7310894;19;129126;-35
2022/10/30 06:34:07;;;;;;;;;;;;;;;21.86;66.14;99750.13;7307696;19;130105;-33
2022/10/30 06:36:32;;;;;;;;;;;;;;;21.80;65.70;99745.41;7311620;19;129677;-35
2022/10/30 06:38:58;;;;;;;;;;;;;;;21.81;65.71;99746.25;7315483;19;130421;-31
2022/10/30 06:41:23;;;;;;;;;;;;;;;21.80;66.45;99744.56;7316400;19;129057;-35
2022/10/30 06:43:48;;;;;;;;;;;;;;;21.81;65.65;99751.47;7315497;19;129438;-30
2022/10/30 06:46:13;;;;;;;;;;;;;;;21.84;65.97;99756.44;7316685;19;129716;-35
2022/10/30 06:48:39;;;;;;;;;;;;;;;21.74;65.78;99751.16;7311351;19;130110;-35
2022/10/30 06:51:04;;;;;;;;;;;;;;;21.81;65.37;99762.78;7313244;19;129894;-33
2022/10/30 06:53:30;;;;;;;;;;;;;;;21.84;66.08;99764.28;7310993;19;130361;-37
2022/10/30 06:55:55;;;;;;;;;;;;;;;21.84;66.16;99764.28;7311522;19;129284;-34
2022/10/30 06:58:21;;;;;;;;;;;;;;;21.83;65.28;99760.84;7313366;19;128836;-36
2022/10/30 07:00:46;;;;;;;;;;;;;;;21.83;65.74;99771.31;7313467;19;130523;-35
2022/10/30 07:03:11;;;;;;;;;;;;;;;21.73;65.56;99746.88;7314600;19;129696;-33
2022/10/30 07:05:36;;;;;;;;;;;;;;;21.80;66.43;99755.88;7315674;19;129472;-33
2022/10/30 07:08:02;;;;;;;;;;;;;;;21.81;65.77;99762.78;7312553;19;130721;-33
2022/10/30 07:10:27;;;;;;;;;;;;;;;21.70;66.00;99741.94;7313539;19;130189;-30
2022/10/30 07:12:53;;;;;;;;;;;;;;;21.79;66.36;99759.47;7313197;19;129219;-35
2022/10/30 07:15:18;;;;;;;;;;;;;;;21.78;65.76;99763.03;7312579;19;129633;-32
2022/10/30 07:17:50;;;;;;;;;;;;;;;21.71;66.13;99751.44;7308212;19;131952;-32
2022/10/30 07:20:15;;;;;;;;;;;;;;;21.80;65.58;99761.13;7310325;19;128969;-32
2022/10/30 07:22:40;;;;;;;;;;;;;;;21.81;65.56;99761.94;7312309;19;129121;-30
2022/10/30 07:25:06;;;;;;;;;;;;;;;21.84;65.82;99767.75;7313037;19;129662;-32
2022/10/30 07:27:31;;;;;;;;;;;;;;;21.78;66.46;99751.75;7311697;19;130019;-29
2022/10/30 07:29:56;;;;;;;;;;;;;;;21.76;65.90;99749.28;7313542;19;129277;-32
2022/10/30 07:32:21;;;;;;;;;;;;;;;21.80;66.21;99768.97;7311670;19;129301;-37
2022/10/30 07:34:47;;;;;;;;;;;;;;;21.83;66.10;99768.69;7308294;19;129615;-37
2022/10/30 07:37:12;;;;;;;;;;;;;;;21.81;66.16;99773.25;7311137;19;129061;-32
2022/10/30 07:39:37;;;;;;;;;;;;;;;21.80;66.12;99784.66;7313184;19;129966;-33
2022/10/30 07:42:02;;;;;;;;;;;;;;;21.81;66.30;99785.50;7311779;19;130264;-34
2022/10/30 07:44:28;;;;;;;;;;;;;;;21.86;66.08;99772.84;7311113;19;129669;-34
2022/10/30 07:46:53;;;;;;;;;;;;;;;21.84;65.93;99778.22;7310803;19;130794;-36
2022/10/30 07:49:18;;;;;;;;;;;;;;;21.82;66.21;99784.53;7313844;19;129606;-36
2022/10/30 07:51:43;;;;;;;;;;;;;;;21.81;65.55;99773.25;7311202;19;130724;-35
2022/10/30 07:54:09;;;;;;;;;;;;;;;21.84;65.68;99772.13;7311687;19;130098;-32
2022/10/30 07:56:34;;;;;;;;;;;;;;;21.83;65.80;99775.72;7312448;19;129861;-31
2022/10/30 07:58:59;;;;;;;;;;;;;;;21.82;65.49;99772.28;7311709;19;131662;-36
2022/10/30 08:01:24;;;;;;;;;;;;;;;21.83;65.61;99779.16;7312237;19;129118;-33
2022/10/30 08:03:50;;;;;;;;;;;;;;;21.81;65.70;99777.66;7312850;19;129684;-35
2022/10/30 08:06:15;;;;;;;;;;;;;;;21.80;66.14;99766.34;7313352;19;128842;-34
2022/10/30 08:08:40;;;;;;;;;;;;;;;21.81;65.83;99772.41;7310820;19;129241;-34
2022/10/30 08:11:05;;;;;;;;;;;;;;;21.80;65.67;99766.34;7313218;19;130569;-32
2022/10/30 08:13:31;;;;;;;;;;;;;;;21.70;66.37;99744.53;7313022;19;129511;-29
2022/10/30 08:15:56;;;;;;;;;;;;;;;21.80;66.47;99768.97;7312043;19;129361;-33
2022/10/30 08:18:21;;;;;;;;;;;;;;;21.82;65.81;99764.44;7311479;19;129010;-34
2022/10/30 08:20:49;;;;;;;;;;;;;;;21.81;65.70;99770.63;7306998;19;130389;-30
2022/10/30 08:23:16;;;;;;;;;;;;;;;21.79;65.93;99775.19;7310019;19;130431;-37
2022/10/30 08:25:41;;;;;;;;;;;;;;;21.80;65.73;99782.06;7312362;19;129432;-31
2022/10/30 08:28:07;;;;;;;;;;;;;;;21.82;66.24;99772.28;7309093;19;130126;-35
2022/10/30 08:30:33;;;;;;;;;;;;;;;21.80;66.27;99768.13;7310747;19;129404;-32
2022/10/30 08:32:59;;;;;;;;;;;;;;;21.78;66.54;99768.25;7308195;19;129596;-34
2022/10/30 08:35:25;;;;;;;;;;;;;;;21.68;65.71;99751.69;7304390;19;130976;-37
2022/10/30 08:37:53;;;;;;;;;;;;;;;21.80;65.87;99768.97;7308336;19;129789;-36
2022/10/30 08:40:19;;;;;;;;;;;;;;;21.79;65.91;99766.50;7310098;19;130097;-38
2022/10/30 08:42:49;;;;;;;;;;;;;;;21.80;65.66;99761.13;7309831;19;129627;-32
2022/10/30 08:45:14;;;;;;;;;;;;;;;21.81;65.90;99761.94;7311043;19;129890;-30
2022/10/30 08:47:39;;;;;;;;;;;;;;;21.83;66.40;99765.25;7309209;19;130885;-39
2022/10/30 08:50:04;;;;;;;;;;;;;;;21.78;66.06;99763.03;7309099;19;130879;-32
2022/10/30 08:52:30;;;;;;;;;;;;;;;21.69;66.17;99745.53;7310386;19;129793;-31
2022/10/30 08:54:55;;;;;;;;;;;;;;;21.84;65.82;99765.13;7308460;19;129904;-32
2022/10/30 08:57:20;;;;;;;;;;;;;;;21.84;65.48;99772.97;7311758;19;128952;-34
2022/10/30 08:59:45;;;;;;;;;;;;;;;21.84;65.84;99762.50;7306630;19;130376;-37
2022/10/30 09:02:10;;;;;;;;;;;;;;;21.84;65.41;99761.66;7306987;19;130430;-33
2022/10/30 09:04:36;;;;;;;;;;;;;;;21.83;65.77;99754.78;7310557;19;129001;-34
2022/10/30 09:07:01;;;;;;;;;;;;;;;21.84;66.16;99759.88;7303330;19;130659;-36
2022/10/30 09:09:26;;;;;;;;;;;;;;;21.82;65.92;99763.59;7305927;19;130498;-34
2022/10/30 09:11:51;;;;;;;;;;;;;;;21.81;65.55;99754.94;7311850;19;130254;-34
2022/10/30 09:14:17;;;;;;;;;;;;;;;21.81;65.71;99761.94;7311262;19;129042;-35
2022/10/30 09:16:42;;;;;;;;;;;;;;;21.83;65.86;99760.03;7309152;19;129110;-35
2022/10/30 09:19:08;;;;;;;;;;;;;;;21.72;65.45;99737.38;7309500;19;129455;-30
2022/10/30 09:21:33;;;;;;;;;;;;;;;21.84;65.41;99757.28;7309119;19;129331;-35
2022/10/30 09:23:59;;;;;;;;;;;;;;;21.84;66.03;99767.75;7309546;19;129379;-32
2022/10/30 09:26:24;;;;;;;;;;;;;;;21.78;65.73;99768.25;7308112;19;129554;-30
2022/10/30 09:28:49;;;;;;;;;;;;;;;21.79;65.82;99762.09;7309023;19;130695;-34
2022/10/30 09:31:14;;;;;;;;;;;;;;;21.81;66.14;99754.94;7309435;19;129671;-35
2022/10/30 09:33:40;;;;;;;;;;;;;;;21.82;65.70;99766.22;7309406;19;129438;-37
2022/10/30 09:36:05;;;;;;;;;;;;;;;21.81;66.20;99760.16;7309888;19;129003;-31
2022/10/30 09:38:30;;;;;;;;;;;;;;;21.81;65.83;99765.41;7307273;19;131156;-35
2022/10/30 09:41:02;;;;;;;;;;;;;;;21.71;66.10;99753.22;7308582;19;130070;-32
2022/10/30 09:43:42;;;;;;;;;;;;;;;21.79;66.26;99764.72;7311494;19;130235;-34
2022/10/30 09:46:19;;;;;;;;;;;;;;;21.83;65.78;99771.31;7309207;19;130488;-32
2022/10/30 09:49:03;;;;;;;;;;;;;;;21.83;66.11;99773.13;7302341;19;131044;-39
2022/10/30 09:51:34;;;;;;;;;;;;;;;21.80;66.27;99773.38;7306549;19;129492;-33
2022/10/30 09:54:09;;;;;;;;;;;;;;;21.68;65.68;99762.16;7302736;19;129969;-34
2022/10/30 09:56:46;;;;;;;;;;;;;;;21.82;66.24;99777.50;7301659;19;130339;-31
2022/10/30 09:59:30;;;;;;;;;;;;;;;21.82;65.83;99784.53;7305887;19;129686;-35
2022/10/30 10:01:59;;;;;;;;;;;;;;;21.82;65.53;99782.75;7304722;19;129687;-34
2022/10/30 10:04:38;;;;;;;;;;;;;;;21.81;65.97;99782.88;7308593;19;129394;-36
2022/10/30 10:07:12;;;;;;;;;;;;;;;21.82;65.71;99780.13;7304646;19;129752;-33
2022/10/30 10:09:38;;;;;;;;;;;;;;;21.78;65.75;99777.94;7307981;19;130113;-34
2022/10/30 10:12:06;;;;;;;;;;;;;;;21.80;65.62;99783.84;7311039;19;131167;-36
2022/10/30 10:14:33;;;;;;;;;;;;;;;21.78;65.47;99789.19;7311802;19;129720;-36
2022/10/30 10:17:01;;;;;;;;;;;;;;;21.77;65.76;99781.50;7314381;19;129288;-34
2022/10/30 10:19:32;;;;;;;;;;;;;;;21.77;65.77;99782.31;7312876;19;130949;-36
2022/10/30 10:21:58;;;;;;;;;;;;;;;21.82;65.97;99780.13;7312808;19;129983;-32
2022/10/30 10:24:26;;;;;;;;;;;;;;;21.79;65.70;99784.81;7315763;19;130224;-33
2022/10/30 10:27:03;;;;;;;;;;;;;;;21.80;65.47;99776.81;7314036;19;129867;-32
2022/10/30 10:29:36;;;;;;;;;;;;;;;21.81;65.73;99768.03;7315422;19;129385;-33
2022/10/30 10:32:16;;;;;;;;;;;;;;;21.79;66.06;99769.94;7314402;19;129693;-30
2022/10/30 10:34:53;;;;;;;;;;;;;;;21.80;65.90;99766.34;7313377;19;129350;-31
2022/10/30 10:37:18;;;;;;;;;;;;;;;21.79;65.93;99766.50;7315136;19;129711;-33
2022/10/30 10:39:50;;;;;;;;;;;;;;;21.81;65.62;99768.03;7316172;19;129250;-32
2022/10/30 10:42:27;;;;;;;;;;;;;;;21.79;65.63;99775.19;7315632;19;129731;-33
2022/10/30 10:44:59;;;;;;;;;;;;;;;21.81;65.83;99775.88;7315730;19;129593;-37
2022/10/30 10:47:36;;;;;;;;;;;;;;;21.66;66.03;99752.81;7316773;19;128971;-29
2022/10/30 10:50:01;;;;;;;;;;;;;;;21.79;65.49;99769.94;7316209;19;130010;-33
2022/10/30 10:52:42;;;;;;;;;;;;;;;21.78;65.71;99763.03;7316346;19;130168;-32
2022/10/30 10:55:16;;;;;;;;;;;;;;;21.81;65.36;99769.81;7315095;19;130888;-36
2022/10/30 10:57:42;;;;;;;;;;;;;;;21.77;65.57;99764.00;7315791;19;131035;-33
2022/10/30 11:00:24;;;;;;;;;;;;;;;21.71;66.03;99748.84;7315473;19;129085;-30
2022/10/30 11:03:08;;;;;;;;;;;;;;;21.81;65.98;99761.94;7316372;19;130588;-37
2022/10/30 11:05:49;;;;;;;;;;;;;;;21.81;65.69;99762.78;7315582;19;128747;-37
2022/10/30 11:08:28;;;;;;;;;;;;;;;21.67;65.88;99743.97;7314426;19;129849;-33
2022/10/30 11:11:04;;;;;;;;;;;;;;;21.80;65.80;99763.72;7315027;19;131206;-38
2022/10/30 11:13:34;;;;;;;;;;;;;;;21.78;66.01;99757.81;7316265;19;129178;-31
2022/10/30 11:16:20;;;;;;;;;;;;;;;21.78;65.58;99763.03;7315068;19;129713;-36
2022/10/30 11:18:47;;;;;;;;;;;;;;;21.81;65.88;99760.16;7313926;19;129957;-32
2022/10/30 11:21:16;;;;;;;;;;;;;;;21.78;65.93;99752.56;7314636;19;130091;-32
2022/10/30 11:23:43;;;;;;;;;;;;;;;21.85;65.90;99753.69;7313014;19;130511;-32
2022/10/30 11:26:17;;;;;;;;;;;;;;;21.82;65.80;99753.97;7316401;19;129041;-33
2022/10/30 11:29:21;;;;;;;;;;;;;;;21.80;65.30;99750.66;7313448;19;128956;-32
2022/10/30 11:31:57;;;;;;;;;;;;;;;21.81;65.60;99752.31;7308694;19;129780;-34
2022/10/30 11:34:27;;;;;;;;;;;;;;;21.79;66.16;99748.16;7309261;19;129694;-37
2022/10/30 11:36:53;;;;;;;;;;;;;;;21.80;65.64;99745.41;7311553;19;131202;-33
2022/10/30 11:39:20;;;;;;;;;;;;;;;21.75;65.60;99747.56;7314125;19;129613;-37
2022/10/30 11:41:48;;;;;;;;;;;;;;;21.79;65.55;99743.78;7313448;19;129201;-33
2022/10/30 11:44:13;;;;;;;;;;;;;;;21.80;65.98;99750.66;7315388;19;129452;-32
2022/10/30 11:46:39;;;;;;;;;;;;;;;21.80;65.44;99745.41;7312623;19;130179;-33
2022/10/30 11:49:04;;;;;;;;;;;;;;;21.81;65.33;99741.84;7316446;19;129546;-32
2022/10/30 11:51:31;;;;;;;;;;;;;;;21.81;65.68;99746.25;7313972;19;129096;-31
2022/10/30 11:53:57;;;;;;;;;;;;;;;21.78;66.02;99734.25;7312186;19;131048;-32
2022/10/30 11:56:22;;;;;;;;;;;;;;;21.80;66.03;99734.94;7314187;19;128991;-34
2022/10/30 11:58:55;;;;;;;;;;;;;;;21.79;65.46;99738.53;7311576;19;129041;-32
2022/10/30 12:01:23;;;;;;;;;;;;;;;21.79;65.37;99733.31;7314004;19;129540;-33
2022/10/30 12:03:49;;;;;;;;;;;;;;;21.81;65.36;99733.16;7309837;19;129969;-36
2022/10/30 12:06:17;;;;;;;;;;;;;;;21.80;65.99;99734.09;7311801;19;129644;-27
2022/10/30 12:09:00;;;;;;;;;;;;;;;21.80;65.70;99732.31;7312959;19;129488;-34
2022/10/30 12:11:30;;;;;;;;;;;;;;;21.81;65.21;99726.16;7313279;19;129113;-35
2022/10/30 12:13:56;;;;;;;;;;;;;;;21.80;65.98;99727.09;7314172;19;129165;-35
2022/10/30 12:16:21;;;;;;;;;;;;;;;21.82;65.76;99730.41;7313036;19;129302;-32
2022/10/30 12:19:13;;;;;;;;;;;;;;;21.81;65.80;99726.16;7308108;19;129166;-29
2022/10/30 12:21:42;;;;;;;;;;;;;;;21.80;66.04;99724.47;7310056;19;130338;-31
2022/10/30 12:24:15;;;;;;;;;;;;;;;21.79;65.63;99714.16;7312573;19;129799;-34
2022/10/30 12:26:44;;;;;;;;;;;;;;;21.77;65.77;99724.75;7309155;19;129127;-38
2022/10/30 12:29:13;;;;;;;;;;;;;;;21.80;65.66;99716.63;7307571;19;130914;-37
2022/10/30 12:31:42;;;;;;;;;;;;;;;21.80;65.51;99716.63;7310115;19;129580;-31
2022/10/30 12:34:25;;;;;;;;;;;;;;;21.77;65.46;99722.13;7310342;19;130129;-32
2022/10/30 12:36:55;;;;;;;;;;;;;;;21.76;66.00;99720.50;7311687;19;129058;-34